sensor_id;sensor_type;location;lat;lon;timestamp;P1;durP1;ratioP1;P2;durP2;ratioP2
11817;SDS011;5966;52.402;5.322;2022-10-04T00:01:24;7.50;;;3.67;;
11817;SDS011;5966;52.402;5.322;2022-10-04T00:04:00;10.93;;;3.53;;
11817;SDS011;5966;52.402;5.322;2022-10-04T00:06:35;10.23;;;4.47;;
11817;SDS011;5966;52.402;5.322;2022-10-04T00:09:11;8.80;;;4.00;;
11817;SDS011;5966;52.402;5.322;2022-10-04T00:11:43;7.20;;;3.50;;
11817;SDS011;5966;52.402;5.322;2022-10-04T00:14:16;8.30;;;3.57;;
11817;SDS011;5966;52.402;5.322;2022-10-04T00:16:54;8.23;;;3.70;;
11817;SDS011;5966;52.402;5.322;2022-10-04T00:19:40;8.47;;;4.17;;
11817;SDS011;5966;52.402;5.322;2022-10-04T00:22:25;7.67;;;3.70;;
11817;SDS011;5966;52.402;5.322;2022-10-04T00:25:12;9.63;;;4.00;;
11817;SDS011;5966;52.402;5.322;2022-10-04T00:33:56;8.03;;;3.93;;
11817;SDS011;5966;52.402;5.322;2022-10-04T00:37:01;7.57;;;3.80;;
11817;SDS011;5966;52.402;5.322;2022-10-04T00:39:42;6.27;;;3.67;;
11817;SDS011;5966;52.402;5.322;2022-10-04T00:42:24;8.63;;;3.57;;
11817;SDS011;5966;52.402;5.322;2022-10-04T00:45:04;7.87;;;3.90;;
11817;SDS011;5966;52.402;5.322;2022-10-04T00:47:51;7.33;;;4.17;;
11817;SDS011;5966;52.402;5.322;2022-10-04T00:50:37;9.23;;;3.90;;
11817;SDS011;5966;52.402;5.322;2022-10-04T00:53:12;6.33;;;4.00;;
11817;SDS011;5966;52.402;5.322;2022-10-04T00:55:46;8.90;;;4.30;;
11817;SDS011;5966;52.402;5.322;2022-10-04T00:58:17;12.40;;;4.13;;
11817;SDS011;5966;52.402;5.322;2022-10-04T01:00:51;7.57;;;4.10;;
11817;SDS011;5966;52.402;5.322;2022-10-04T01:03:25;7.67;;;3.73;;
11817;SDS011;5966;52.402;5.322;2022-10-04T01:05:58;6.20;;;3.63;;
11817;SDS011;5966;52.402;5.322;2022-10-04T01:08:30;8.80;;;3.97;;
11817;SDS011;5966;52.402;5.322;2022-10-04T01:11:02;9.63;;;4.30;;
11817;SDS011;5966;52.402;5.322;2022-10-04T01:13:35;8.07;;;4.77;;
11817;SDS011;5966;52.402;5.322;2022-10-04T01:16:08;6.87;;;4.00;;
11817;SDS011;5966;52.402;5.322;2022-10-04T01:18:40;8.47;;;4.30;;
11817;SDS011;5966;52.402;5.322;2022-10-04T01:21:19;6.50;;;3.90;;
11817;SDS011;5966;52.402;5.322;2022-10-04T01:24:14;5.77;;;4.03;;
11817;SDS011;5966;52.402;5.322;2022-10-04T01:26:43;9.17;;;4.07;;
11817;SDS011;5966;52.402;5.322;2022-10-04T01:29:13;8.50;;;3.90;;
11817;SDS011;5966;52.402;5.322;2022-10-04T01:31:44;7.47;;;3.73;;
11817;SDS011;5966;52.402;5.322;2022-10-04T01:34:15;6.00;;;4.23;;
11817;SDS011;5966;52.402;5.322;2022-10-04T01:36:45;7.43;;;4.20;;
11817;SDS011;5966;52.402;5.322;2022-10-04T01:39:16;7.30;;;4.33;;
11817;SDS011;5966;52.402;5.322;2022-10-04T01:41:48;7.70;;;4.63;;
11817;SDS011;5966;52.402;5.322;2022-10-04T01:44:22;6.10;;;3.83;;
11817;SDS011;5966;52.402;5.322;2022-10-04T01:46:57;9.03;;;4.27;;
11817;SDS011;5966;52.402;5.322;2022-10-04T01:49:28;8.27;;;4.33;;
11817;SDS011;5966;52.402;5.322;2022-10-04T01:52:01;9.33;;;4.40;;
11817;SDS011;5966;52.402;5.322;2022-10-04T01:54:35;8.80;;;4.17;;
11817;SDS011;5966;52.402;5.322;2022-10-04T01:57:10;7.17;;;4.10;;
11817;SDS011;5966;52.402;5.322;2022-10-04T01:59:43;9.17;;;4.97;;
11817;SDS011;5966;52.402;5.322;2022-10-04T02:02:20;9.00;;;4.20;;
11817;SDS011;5966;52.402;5.322;2022-10-04T02:04:53;10.20;;;4.50;;
11817;SDS011;5966;52.402;5.322;2022-10-04T02:07:23;11.80;;;4.60;;
11817;SDS011;5966;52.402;5.322;2022-10-04T02:09:57;5.43;;;3.83;;
11817;SDS011;5966;52.402;5.322;2022-10-04T02:12:28;6.27;;;3.90;;
11817;SDS011;5966;52.402;5.322;2022-10-04T02:14:58;8.43;;;4.60;;
11817;SDS011;5966;52.402;5.322;2022-10-04T02:17:29;7.00;;;4.30;;
11817;SDS011;5966;52.402;5.322;2022-10-04T02:20:00;7.47;;;4.17;;
11817;SDS011;5966;52.402;5.322;2022-10-04T02:22:34;8.23;;;4.13;;
11817;SDS011;5966;52.402;5.322;2022-10-04T02:25:04;8.63;;;4.40;;
11817;SDS011;5966;52.402;5.322;2022-10-04T02:27:33;7.87;;;4.07;;
11817;SDS011;5966;52.402;5.322;2022-10-04T02:30:02;9.57;;;4.53;;
11817;SDS011;5966;52.402;5.322;2022-10-04T02:32:40;8.07;;;4.50;;
11817;SDS011;5966;52.402;5.322;2022-10-04T02:35:26;9.57;;;4.43;;
11817;SDS011;5966;52.402;5.322;2022-10-04T02:38:01;6.87;;;4.57;;
11817;SDS011;5966;52.402;5.322;2022-10-04T02:40:37;10.23;;;5.00;;
11817;SDS011;5966;52.402;5.322;2022-10-04T02:43:12;6.53;;;4.37;;
11817;SDS011;5966;52.402;5.322;2022-10-04T02:45:45;9.20;;;4.83;;
11817;SDS011;5966;52.402;5.322;2022-10-04T02:48:27;7.60;;;4.40;;
11817;SDS011;5966;52.402;5.322;2022-10-04T02:51:05;7.90;;;4.70;;
11817;SDS011;5966;52.402;5.322;2022-10-04T02:53:45;10.97;;;4.83;;
11817;SDS011;5966;52.402;5.322;2022-10-04T02:56:21;6.33;;;4.27;;
11817;SDS011;5966;52.402;5.322;2022-10-04T02:58:50;9.20;;;5.00;;
11817;SDS011;5966;52.402;5.322;2022-10-04T03:01:24;8.80;;;4.80;;
11817;SDS011;5966;52.402;5.322;2022-10-04T03:03:54;8.40;;;5.07;;
11817;SDS011;5966;52.402;5.322;2022-10-04T03:06:31;8.87;;;4.80;;
11817;SDS011;5966;52.402;5.322;2022-10-04T03:09:02;6.43;;;4.73;;
11817;SDS011;5966;52.402;5.322;2022-10-04T03:11:34;9.60;;;4.80;;
11817;SDS011;5966;52.402;5.322;2022-10-04T03:14:07;12.63;;;5.30;;
11817;SDS011;5966;52.402;5.322;2022-10-04T03:16:39;8.77;;;5.07;;
11817;SDS011;5966;52.402;5.322;2022-10-04T03:19:10;9.23;;;5.53;;
11817;SDS011;5966;52.402;5.322;2022-10-04T03:21:42;9.30;;;5.47;;
11817;SDS011;5966;52.402;5.322;2022-10-04T03:24:14;9.63;;;5.30;;
11817;SDS011;5966;52.402;5.322;2022-10-04T03:26:46;8.37;;;5.00;;
11817;SDS011;5966;52.402;5.322;2022-10-04T03:29:17;8.03;;;5.53;;
11817;SDS011;5966;52.402;5.322;2022-10-04T03:31:54;10.30;;;6.13;;
11817;SDS011;5966;52.402;5.322;2022-10-04T03:34:24;8.03;;;5.63;;
11817;SDS011;5966;52.402;5.322;2022-10-04T03:36:54;10.57;;;6.00;;
11817;SDS011;5966;52.402;5.322;2022-10-04T03:39:26;9.13;;;5.97;;
11817;SDS011;5966;52.402;5.322;2022-10-04T03:41:59;7.90;;;5.93;;
11817;SDS011;5966;52.402;5.322;2022-10-04T03:44:31;7.43;;;5.77;;
11817;SDS011;5966;52.402;5.322;2022-10-04T03:46:59;10.80;;;6.30;;
11817;SDS011;5966;52.402;5.322;2022-10-04T03:49:30;11.53;;;6.10;;
11817;SDS011;5966;52.402;5.322;2022-10-04T03:52:00;12.07;;;6.73;;
11817;SDS011;5966;52.402;5.322;2022-10-04T03:54:29;8.53;;;5.70;;
11817;SDS011;5966;52.402;5.322;2022-10-04T03:57:02;7.57;;;6.23;;
11817;SDS011;5966;52.402;5.322;2022-10-04T03:59:32;9.93;;;5.97;;
11817;SDS011;5966;52.402;5.322;2022-10-04T04:02:06;9.03;;;6.10;;
11817;SDS011;5966;52.402;5.322;2022-10-04T04:04:44;9.97;;;5.80;;
11817;SDS011;5966;52.402;5.322;2022-10-04T04:07:23;11.10;;;6.67;;
11817;SDS011;5966;52.402;5.322;2022-10-04T04:09:55;9.50;;;6.37;;
11817;SDS011;5966;52.402;5.322;2022-10-04T04:12:32;7.23;;;5.93;;
11817;SDS011;5966;52.402;5.322;2022-10-04T04:15:05;10.47;;;6.83;;
11817;SDS011;5966;52.402;5.322;2022-10-04T04:17:37;9.10;;;6.33;;
11817;SDS011;5966;52.402;5.322;2022-10-04T04:20:16;7.00;;;5.80;;
11817;SDS011;5966;52.402;5.322;2022-10-04T04:22:50;8.80;;;6.80;;
11817;SDS011;5966;52.402;5.322;2022-10-04T04:25:24;10.27;;;6.23;;
11817;SDS011;5966;52.402;5.322;2022-10-04T04:28:00;7.57;;;6.43;;
11817;SDS011;5966;52.402;5.322;2022-10-04T04:30:33;10.80;;;7.07;;
11817;SDS011;5966;52.402;5.322;2022-10-04T04:33:07;14.03;;;6.10;;
11817;SDS011;5966;52.402;5.322;2022-10-04T04:35:46;8.57;;;6.73;;
11817;SDS011;5966;52.402;5.322;2022-10-04T04:38:16;13.37;;;7.00;;
11817;SDS011;5966;52.402;5.322;2022-10-04T04:40:46;10.77;;;6.40;;
11817;SDS011;5966;52.402;5.322;2022-10-04T04:43:17;8.57;;;6.30;;
11817;SDS011;5966;52.402;5.322;2022-10-04T04:45:46;10.27;;;6.17;;
11817;SDS011;5966;52.402;5.322;2022-10-04T04:48:35;8.93;;;6.07;;
11817;SDS011;5966;52.402;5.322;2022-10-04T04:51:03;12.67;;;6.60;;
11817;SDS011;5966;52.402;5.322;2022-10-04T04:53:32;12.73;;;7.00;;
11817;SDS011;5966;52.402;5.322;2022-10-04T04:56:01;9.17;;;7.00;;
11817;SDS011;5966;52.402;5.322;2022-10-04T04:58:32;8.43;;;6.17;;
11817;SDS011;5966;52.402;5.322;2022-10-04T05:01:03;8.80;;;6.70;;
11817;SDS011;5966;52.402;5.322;2022-10-04T05:03:33;11.10;;;6.70;;
11817;SDS011;5966;52.402;5.322;2022-10-04T05:06:01;10.83;;;7.10;;
11817;SDS011;5966;52.402;5.322;2022-10-04T05:08:32;9.20;;;6.77;;
11817;SDS011;5966;52.402;5.322;2022-10-04T05:11:10;9.57;;;7.33;;
11817;SDS011;5966;52.402;5.322;2022-10-04T05:13:43;8.93;;;6.90;;
11817;SDS011;5966;52.402;5.322;2022-10-04T05:16:14;9.37;;;7.07;;
11817;SDS011;5966;52.402;5.322;2022-10-04T05:18:46;11.90;;;6.73;;
11817;SDS011;5966;52.402;5.322;2022-10-04T05:21:16;11.37;;;7.00;;
11817;SDS011;5966;52.402;5.322;2022-10-04T05:23:49;7.47;;;6.77;;
11817;SDS011;5966;52.402;5.322;2022-10-04T05:26:18;10.97;;;6.93;;
11817;SDS011;5966;52.402;5.322;2022-10-04T05:28:53;8.93;;;6.90;;
11817;SDS011;5966;52.402;5.322;2022-10-04T05:31:26;11.33;;;7.27;;
11817;SDS011;5966;52.402;5.322;2022-10-04T05:34:00;9.40;;;7.27;;
11817;SDS011;5966;52.402;5.322;2022-10-04T05:39:27;10.00;;;6.77;;
11817;SDS011;5966;52.402;5.322;2022-10-04T05:42:04;8.40;;;6.87;;
11817;SDS011;5966;52.402;5.322;2022-10-04T05:44:45;10.63;;;7.07;;
11817;SDS011;5966;52.402;5.322;2022-10-04T05:47:17;8.33;;;6.77;;
11817;SDS011;5966;52.402;5.322;2022-10-04T05:49:50;9.03;;;7.30;;
11817;SDS011;5966;52.402;5.322;2022-10-04T05:52:24;9.03;;;7.00;;
11817;SDS011;5966;52.402;5.322;2022-10-04T05:57:55;9.10;;;6.83;;
11817;SDS011;5966;52.402;5.322;2022-10-04T06:00:47;11.83;;;7.70;;
11817;SDS011;5966;52.402;5.322;2022-10-04T06:03:33;11.77;;;8.10;;
11817;SDS011;5966;52.402;5.322;2022-10-04T06:06:13;10.43;;;7.80;;
11817;SDS011;5966;52.402;5.322;2022-10-04T06:08:47;9.27;;;7.60;;
11817;SDS011;5966;52.402;5.322;2022-10-04T06:11:33;11.13;;;7.63;;
11817;SDS011;5966;52.402;5.322;2022-10-04T06:14:15;11.20;;;8.10;;
11817;SDS011;5966;52.402;5.322;2022-10-04T06:17:18;11.10;;;7.30;;
11817;SDS011;5966;52.402;5.322;2022-10-04T06:19:57;11.23;;;7.83;;
11817;SDS011;5966;52.402;5.322;2022-10-04T06:22:41;10.40;;;7.60;;
11817;SDS011;5966;52.402;5.322;2022-10-04T06:25:11;14.40;;;8.67;;
11817;SDS011;5966;52.402;5.322;2022-10-04T06:27:53;10.93;;;7.60;;
11817;SDS011;5966;52.402;5.322;2022-10-04T06:30:27;11.73;;;7.17;;
11817;SDS011;5966;52.402;5.322;2022-10-04T06:33:12;12.20;;;7.97;;
11817;SDS011;5966;52.402;5.322;2022-10-04T06:39:20;11.87;;;8.43;;
11817;SDS011;5966;52.402;5.322;2022-10-04T06:42:12;12.10;;;8.10;;
11817;SDS011;5966;52.402;5.322;2022-10-04T06:45:04;11.30;;;7.77;;
11817;SDS011;5966;52.402;5.322;2022-10-04T06:47:48;12.40;;;8.07;;
11817;SDS011;5966;52.402;5.322;2022-10-04T06:50:37;13.80;;;7.87;;
11817;SDS011;5966;52.402;5.322;2022-10-04T06:53:22;10.87;;;8.23;;
11817;SDS011;5966;52.402;5.322;2022-10-04T06:58:56;9.37;;;7.63;;
11817;SDS011;5966;52.402;5.322;2022-10-04T07:01:37;10.77;;;7.73;;
11817;SDS011;5966;52.402;5.322;2022-10-04T07:04:18;13.60;;;7.67;;
11817;SDS011;5966;52.402;5.322;2022-10-04T07:06:55;12.07;;;7.93;;
11817;SDS011;5966;52.402;5.322;2022-10-04T07:10:02;10.37;;;7.23;;
11817;SDS011;5966;52.402;5.322;2022-10-04T07:12:54;9.90;;;7.13;;
11817;SDS011;5966;52.402;5.322;2022-10-04T07:15:44;12.90;;;7.57;;
11817;SDS011;5966;52.402;5.322;2022-10-04T07:18:18;10.00;;;6.70;;
11817;SDS011;5966;52.402;5.322;2022-10-04T07:21:00;14.70;;;7.23;;
11817;SDS011;5966;52.402;5.322;2022-10-04T07:23:36;11.27;;;7.50;;
11817;SDS011;5966;52.402;5.322;2022-10-04T07:26:14;10.47;;;7.33;;
11817;SDS011;5966;52.402;5.322;2022-10-04T07:28:53;10.57;;;7.00;;
11817;SDS011;5966;52.402;5.322;2022-10-04T07:31:42;12.90;;;7.27;;
11817;SDS011;5966;52.402;5.322;2022-10-04T07:34:17;10.63;;;6.90;;
11817;SDS011;5966;52.402;5.322;2022-10-04T07:36:52;9.03;;;6.70;;
11817;SDS011;5966;52.402;5.322;2022-10-04T07:39:26;9.00;;;6.87;;
11817;SDS011;5966;52.402;5.322;2022-10-04T07:41:58;10.60;;;7.40;;
11817;SDS011;5966;52.402;5.322;2022-10-04T07:44:37;12.43;;;6.43;;
11817;SDS011;5966;52.402;5.322;2022-10-04T07:47:17;10.53;;;6.53;;
11817;SDS011;5966;52.402;5.322;2022-10-04T07:49:50;8.37;;;6.27;;
11817;SDS011;5966;52.402;5.322;2022-10-04T07:52:31;13.27;;;6.77;;
11817;SDS011;5966;52.402;5.322;2022-10-04T07:55:15;11.27;;;6.67;;
11817;SDS011;5966;52.402;5.322;2022-10-04T07:57:52;7.60;;;6.53;;
11817;SDS011;5966;52.402;5.322;2022-10-04T08:06:16;8.60;;;6.03;;
11817;SDS011;5966;52.402;5.322;2022-10-04T08:11:53;12.00;;;6.23;;
11817;SDS011;5966;52.402;5.322;2022-10-04T08:17:32;9.87;;;6.17;;
11817;SDS011;5966;52.402;5.322;2022-10-04T08:20:22;11.23;;;6.10;;
11817;SDS011;5966;52.402;5.322;2022-10-04T08:23:14;9.20;;;5.83;;
11817;SDS011;5966;52.402;5.322;2022-10-04T08:26:08;8.47;;;5.40;;
11817;SDS011;5966;52.402;5.322;2022-10-04T08:28:53;9.87;;;6.13;;
11817;SDS011;5966;52.402;5.322;2022-10-04T08:31:56;8.63;;;5.70;;
11817;SDS011;5966;52.402;5.322;2022-10-04T08:34:38;9.13;;;6.50;;
11817;SDS011;5966;52.402;5.322;2022-10-04T08:37:23;8.77;;;5.93;;
11817;SDS011;5966;52.402;5.322;2022-10-04T08:40:17;10.33;;;6.37;;
11817;SDS011;5966;52.402;5.322;2022-10-04T08:43:24;8.53;;;5.63;;
11817;SDS011;5966;52.402;5.322;2022-10-04T08:46:45;12.30;;;5.90;;
11817;SDS011;5966;52.402;5.322;2022-10-04T08:50:00;11.17;;;6.30;;
11817;SDS011;5966;52.402;5.322;2022-10-04T08:56:37;9.40;;;5.97;;
11817;SDS011;5966;52.402;5.322;2022-10-04T09:05:37;8.70;;;5.93;;
11817;SDS011;5966;52.402;5.322;2022-10-04T09:11:44;12.70;;;7.67;;
11817;SDS011;5966;52.402;5.322;2022-10-04T09:18:03;9.93;;;6.30;;
11817;SDS011;5966;52.402;5.322;2022-10-04T09:21:05;11.77;;;5.53;;
11817;SDS011;5966;52.402;5.322;2022-10-04T09:23:56;7.00;;;6.00;;
11817;SDS011;5966;52.402;5.322;2022-10-04T09:27:03;10.37;;;5.73;;
11817;SDS011;5966;52.402;5.322;2022-10-04T09:30:13;8.97;;;6.30;;
11817;SDS011;5966;52.402;5.322;2022-10-04T09:32:51;8.67;;;5.27;;
11817;SDS011;5966;52.402;5.322;2022-10-04T09:38:55;9.03;;;5.73;;
11817;SDS011;5966;52.402;5.322;2022-10-04T09:42:02;6.37;;;5.27;;
11817;SDS011;5966;52.402;5.322;2022-10-04T09:45:13;8.30;;;4.97;;
11817;SDS011;5966;52.402;5.322;2022-10-04T09:48:07;9.30;;;5.67;;
11817;SDS011;5966;52.402;5.322;2022-10-04T09:54:09;8.23;;;5.07;;
11817;SDS011;5966;52.402;5.322;2022-10-04T09:56:56;10.17;;;4.73;;
11817;SDS011;5966;52.402;5.322;2022-10-04T09:59:48;6.77;;;4.93;;
11817;SDS011;5966;52.402;5.322;2022-10-04T10:02:46;7.30;;;4.30;;
11817;SDS011;5966;52.402;5.322;2022-10-04T10:05:47;7.00;;;4.80;;
11817;SDS011;5966;52.402;5.322;2022-10-04T10:08:38;5.87;;;4.33;;
11817;SDS011;5966;52.402;5.322;2022-10-04T10:11:17;6.33;;;4.50;;
11817;SDS011;5966;52.402;5.322;2022-10-04T10:14:35;7.23;;;4.07;;
11817;SDS011;5966;52.402;5.322;2022-10-04T10:17:29;5.60;;;4.50;;
11817;SDS011;5966;52.402;5.322;2022-10-04T10:20:20;8.67;;;4.57;;
11817;SDS011;5966;52.402;5.322;2022-10-04T10:26:34;7.07;;;4.60;;
11817;SDS011;5966;52.402;5.322;2022-10-04T10:32:35;8.20;;;5.87;;
11817;SDS011;5966;52.402;5.322;2022-10-04T10:35:18;6.13;;;4.83;;
11817;SDS011;5966;52.402;5.322;2022-10-04T10:38:09;8.73;;;5.10;;
11817;SDS011;5966;52.402;5.322;2022-10-04T10:41:03;6.60;;;4.83;;
11817;SDS011;5966;52.402;5.322;2022-10-04T10:44:07;8.30;;;5.50;;
11817;SDS011;5966;52.402;5.322;2022-10-04T10:46:51;7.67;;;5.20;;
11817;SDS011;5966;52.402;5.322;2022-10-04T10:49:38;6.70;;;4.77;;
11817;SDS011;5966;52.402;5.322;2022-10-04T10:52:21;6.43;;;4.80;;
11817;SDS011;5966;52.402;5.322;2022-10-04T10:55:29;6.67;;;4.80;;
11817;SDS011;5966;52.402;5.322;2022-10-04T10:58:33;7.50;;;5.23;;
11817;SDS011;5966;52.402;5.322;2022-10-04T11:01:29;5.00;;;4.07;;
11817;SDS011;5966;52.402;5.322;2022-10-04T11:04:32;5.87;;;4.20;;
11817;SDS011;5966;52.402;5.322;2022-10-04T11:07:18;6.30;;;4.57;;
11817;SDS011;5966;52.402;5.322;2022-10-04T11:10:17;5.30;;;4.70;;
11817;SDS011;5966;52.402;5.322;2022-10-04T11:16:05;7.50;;;4.20;;
11817;SDS011;5966;52.402;5.322;2022-10-04T11:22:17;6.77;;;4.37;;
11817;SDS011;5966;52.402;5.322;2022-10-04T11:25:36;6.93;;;3.87;;
11817;SDS011;5966;52.402;5.322;2022-10-04T11:31:31;12.33;;;4.00;;
11817;SDS011;5966;52.402;5.322;2022-10-04T11:37:32;4.87;;;3.70;;
11817;SDS011;5966;52.402;5.322;2022-10-04T11:40:20;4.67;;;3.43;;
11817;SDS011;5966;52.402;5.322;2022-10-04T11:43:10;6.67;;;3.53;;
11817;SDS011;5966;52.402;5.322;2022-10-04T11:46:12;5.40;;;3.10;;
11817;SDS011;5966;52.402;5.322;2022-10-04T11:49:40;4.23;;;3.43;;
11817;SDS011;5966;52.402;5.322;2022-10-04T11:56:12;6.63;;;3.00;;
11817;SDS011;5966;52.402;5.322;2022-10-04T11:59:12;3.67;;;3.20;;
11817;SDS011;5966;52.402;5.322;2022-10-04T12:09:12;8.83;;;3.30;;
11817;SDS011;5966;52.402;5.322;2022-10-04T12:12:08;4.93;;;3.53;;
11817;SDS011;5966;52.402;5.322;2022-10-04T12:15:16;6.90;;;2.90;;
11817;SDS011;5966;52.402;5.322;2022-10-04T12:21:15;5.40;;;3.30;;
11817;SDS011;5966;52.402;5.322;2022-10-04T12:30:22;5.47;;;3.47;;
11817;SDS011;5966;52.402;5.322;2022-10-04T12:33:12;3.80;;;3.17;;
11817;SDS011;5966;52.402;5.322;2022-10-04T12:35:51;4.90;;;3.33;;
11817;SDS011;5966;52.402;5.322;2022-10-04T12:38:41;4.93;;;3.27;;
11817;SDS011;5966;52.402;5.322;2022-10-04T12:41:23;4.20;;;2.93;;
11817;SDS011;5966;52.402;5.322;2022-10-04T12:44:05;7.07;;;3.30;;
11817;SDS011;5966;52.402;5.322;2022-10-04T12:46:49;4.60;;;3.07;;
11817;SDS011;5966;52.402;5.322;2022-10-04T12:49:39;5.00;;;3.07;;
11817;SDS011;5966;52.402;5.322;2022-10-04T12:52:22;5.67;;;2.80;;
11817;SDS011;5966;52.402;5.322;2022-10-04T12:55:00;5.83;;;2.73;;
11817;SDS011;5966;52.402;5.322;2022-10-04T12:57:41;5.70;;;3.07;;
11817;SDS011;5966;52.402;5.322;2022-10-04T13:00:22;5.90;;;3.50;;
11817;SDS011;5966;52.402;5.322;2022-10-04T13:03:04;7.37;;;3.13;;
11817;SDS011;5966;52.402;5.322;2022-10-04T13:05:59;6.13;;;3.10;;
11817;SDS011;5966;52.402;5.322;2022-10-04T13:08:45;5.73;;;3.00;;
11817;SDS011;5966;52.402;5.322;2022-10-04T13:11:36;4.73;;;3.00;;
11817;SDS011;5966;52.402;5.322;2022-10-04T13:14:23;5.77;;;3.10;;
11817;SDS011;5966;52.402;5.322;2022-10-04T13:17:22;5.73;;;2.83;;
11817;SDS011;5966;52.402;5.322;2022-10-04T13:20:18;4.53;;;3.03;;
11817;SDS011;5966;52.402;5.322;2022-10-04T13:23:10;4.53;;;2.97;;
11817;SDS011;5966;52.402;5.322;2022-10-04T13:26:04;7.00;;;3.70;;
11817;SDS011;5966;52.402;5.322;2022-10-04T13:28:55;5.77;;;3.33;;
11817;SDS011;5966;52.402;5.322;2022-10-04T13:31:31;5.60;;;3.50;;
11817;SDS011;5966;52.402;5.322;2022-10-04T13:34:14;6.97;;;3.37;;
11817;SDS011;5966;52.402;5.322;2022-10-04T13:37:04;6.63;;;2.80;;
11817;SDS011;5966;52.402;5.322;2022-10-04T13:39:52;5.77;;;3.20;;
11817;SDS011;5966;52.402;5.322;2022-10-04T13:42:52;5.63;;;3.07;;
11817;SDS011;5966;52.402;5.322;2022-10-04T13:45:46;5.40;;;2.90;;
11817;SDS011;5966;52.402;5.322;2022-10-04T13:48:25;3.97;;;2.80;;
11817;SDS011;5966;52.402;5.322;2022-10-04T13:51:07;4.77;;;2.70;;
11817;SDS011;5966;52.402;5.322;2022-10-04T13:53:58;5.53;;;3.70;;
11817;SDS011;5966;52.402;5.322;2022-10-04T13:56:57;7.90;;;2.83;;
11817;SDS011;5966;52.402;5.322;2022-10-04T13:59:41;4.50;;;3.27;;
11817;SDS011;5966;52.402;5.322;2022-10-04T14:02:44;4.67;;;2.93;;
11817;SDS011;5966;52.402;5.322;2022-10-04T14:08:56;4.93;;;3.20;;
11817;SDS011;5966;52.402;5.322;2022-10-04T14:11:45;5.10;;;3.13;;
11817;SDS011;5966;52.402;5.322;2022-10-04T14:17:51;4.17;;;3.20;;
11817;SDS011;5966;52.402;5.322;2022-10-04T14:20:47;5.70;;;3.67;;
11817;SDS011;5966;52.402;5.322;2022-10-04T14:23:47;4.77;;;3.13;;
11817;SDS011;5966;52.402;5.322;2022-10-04T14:27:02;4.23;;;3.30;;
11817;SDS011;5966;52.402;5.322;2022-10-04T14:30:10;6.50;;;3.50;;
11817;SDS011;5966;52.402;5.322;2022-10-04T14:35:49;5.33;;;3.30;;
11817;SDS011;5966;52.402;5.322;2022-10-04T14:38:59;8.40;;;3.20;;
11817;SDS011;5966;52.402;5.322;2022-10-04T14:44:53;5.03;;;3.57;;
11817;SDS011;5966;52.402;5.322;2022-10-04T14:47:50;6.57;;;3.50;;
11817;SDS011;5966;52.402;5.322;2022-10-04T14:50:48;6.00;;;3.50;;
11817;SDS011;5966;52.402;5.322;2022-10-04T14:53:27;4.63;;;3.20;;
11817;SDS011;5966;52.402;5.322;2022-10-04T14:56:15;5.40;;;2.80;;
11817;SDS011;5966;52.402;5.322;2022-10-04T15:02:08;6.10;;;3.60;;
11817;SDS011;5966;52.402;5.322;2022-10-04T15:05:03;5.40;;;3.30;;
11817;SDS011;5966;52.402;5.322;2022-10-04T15:07:55;6.73;;;3.43;;
11817;SDS011;5966;52.402;5.322;2022-10-04T15:10:46;4.33;;;3.20;;
11817;SDS011;5966;52.402;5.322;2022-10-04T15:13:29;5.47;;;3.07;;
11817;SDS011;5966;52.402;5.322;2022-10-04T15:16:08;7.80;;;3.73;;
11817;SDS011;5966;52.402;5.322;2022-10-04T15:18:47;6.63;;;3.57;;
11817;SDS011;5966;52.402;5.322;2022-10-04T15:21:41;5.90;;;3.87;;
11817;SDS011;5966;52.402;5.322;2022-10-04T15:24:25;4.33;;;2.93;;
11817;SDS011;5966;52.402;5.322;2022-10-04T15:27:17;6.97;;;3.37;;
11817;SDS011;5966;52.402;5.322;2022-10-04T15:30:22;8.53;;;3.70;;
11817;SDS011;5966;52.402;5.322;2022-10-04T15:33:12;8.77;;;4.10;;
11817;SDS011;5966;52.402;5.322;2022-10-04T15:38:53;5.23;;;3.80;;
11817;SDS011;5966;52.402;5.322;2022-10-04T15:41:29;5.97;;;4.40;;
11817;SDS011;5966;52.402;5.322;2022-10-04T15:44:14;7.37;;;3.70;;
11817;SDS011;5966;52.402;5.322;2022-10-04T15:47:03;6.17;;;3.10;;
11817;SDS011;5966;52.402;5.322;2022-10-04T15:49:49;5.00;;;3.47;;
11817;SDS011;5966;52.402;5.322;2022-10-04T15:56:02;5.93;;;3.73;;
11817;SDS011;5966;52.402;5.322;2022-10-04T16:01:54;5.67;;;3.77;;
11817;SDS011;5966;52.402;5.322;2022-10-04T16:04:57;6.37;;;3.93;;
11817;SDS011;5966;52.402;5.322;2022-10-04T16:07:40;4.33;;;3.67;;
11817;SDS011;5966;52.402;5.322;2022-10-04T16:10:45;6.30;;;3.50;;
11817;SDS011;5966;52.402;5.322;2022-10-04T16:13:23;6.27;;;3.87;;
11817;SDS011;5966;52.402;5.322;2022-10-04T16:16:29;3.97;;;3.53;;
11817;SDS011;5966;52.402;5.322;2022-10-04T16:19:28;5.77;;;3.70;;
11817;SDS011;5966;52.402;5.322;2022-10-04T16:22:12;5.20;;;3.53;;
11817;SDS011;5966;52.402;5.322;2022-10-04T16:24:47;4.53;;;3.70;;
11817;SDS011;5966;52.402;5.322;2022-10-04T16:30:15;6.20;;;4.00;;
11817;SDS011;5966;52.402;5.322;2022-10-04T16:33:01;5.57;;;3.40;;
11817;SDS011;5966;52.402;5.322;2022-10-04T16:35:38;8.20;;;4.00;;
11817;SDS011;5966;52.402;5.322;2022-10-04T16:38:23;6.47;;;3.93;;
11817;SDS011;5966;52.402;5.322;2022-10-04T16:41:07;6.67;;;4.00;;
11817;SDS011;5966;52.402;5.322;2022-10-04T16:43:38;6.00;;;3.80;;
11817;SDS011;5966;52.402;5.322;2022-10-04T16:46:20;5.37;;;3.33;;
11817;SDS011;5966;52.402;5.322;2022-10-04T16:48:58;5.63;;;3.83;;
11817;SDS011;5966;52.402;5.322;2022-10-04T16:51:51;5.70;;;3.70;;
11817;SDS011;5966;52.402;5.322;2022-10-04T16:57:30;5.33;;;3.50;;
11817;SDS011;5966;52.402;5.322;2022-10-04T16:59:59;5.90;;;4.03;;
11817;SDS011;5966;52.402;5.322;2022-10-04T17:03:06;5.03;;;3.60;;
11817;SDS011;5966;52.402;5.322;2022-10-04T17:05:44;6.27;;;3.87;;
11817;SDS011;5966;52.402;5.322;2022-10-04T17:08:43;6.27;;;3.80;;
11817;SDS011;5966;52.402;5.322;2022-10-04T17:11:55;6.80;;;4.67;;
11817;SDS011;5966;52.402;5.322;2022-10-04T17:18:11;6.40;;;4.20;;
11817;SDS011;5966;52.402;5.322;2022-10-04T17:20:53;6.43;;;3.50;;
11817;SDS011;5966;52.402;5.322;2022-10-04T17:23:32;4.80;;;3.87;;
11817;SDS011;5966;52.402;5.322;2022-10-04T17:26:43;6.37;;;3.83;;
11817;SDS011;5966;52.402;5.322;2022-10-04T17:29:46;4.67;;;3.90;;
11817;SDS011;5966;52.402;5.322;2022-10-04T17:32:42;5.03;;;3.70;;
11817;SDS011;5966;52.402;5.322;2022-10-04T17:38:57;9.90;;;4.70;;
11817;SDS011;5966;52.402;5.322;2022-10-04T17:41:39;5.90;;;4.07;;
11817;SDS011;5966;52.402;5.322;2022-10-04T17:44:24;5.37;;;3.73;;
11817;SDS011;5966;52.402;5.322;2022-10-04T17:47:02;4.87;;;3.80;;
11817;SDS011;5966;52.402;5.322;2022-10-04T17:49:55;5.40;;;3.90;;
11817;SDS011;5966;52.402;5.322;2022-10-04T17:52:47;4.40;;;3.80;;
11817;SDS011;5966;52.402;5.322;2022-10-04T17:55:42;7.63;;;4.03;;
11817;SDS011;5966;52.402;5.322;2022-10-04T17:58:37;5.40;;;3.57;;
11817;SDS011;5966;52.402;5.322;2022-10-04T18:01:14;6.27;;;3.90;;
11817;SDS011;5966;52.402;5.322;2022-10-04T18:03:51;7.90;;;4.03;;
11817;SDS011;5966;52.402;5.322;2022-10-04T18:06:30;7.43;;;4.60;;
11817;SDS011;5966;52.402;5.322;2022-10-04T18:09:04;8.70;;;4.83;;
11817;SDS011;5966;52.402;5.322;2022-10-04T18:11:45;5.43;;;4.10;;
11817;SDS011;5966;52.402;5.322;2022-10-04T18:14:21;5.97;;;3.80;;
11817;SDS011;5966;52.402;5.322;2022-10-04T18:17:13;4.30;;;3.87;;
11817;SDS011;5966;52.402;5.322;2022-10-04T18:20:00;5.70;;;3.90;;
11817;SDS011;5966;52.402;5.322;2022-10-04T18:23:11;5.13;;;3.60;;
11817;SDS011;5966;52.402;5.322;2022-10-04T18:25:44;5.73;;;4.10;;
11817;SDS011;5966;52.402;5.322;2022-10-04T18:28:18;5.57;;;3.50;;
11817;SDS011;5966;52.402;5.322;2022-10-04T18:30:50;5.67;;;3.90;;
11817;SDS011;5966;52.402;5.322;2022-10-04T18:33:44;6.53;;;4.07;;
11817;SDS011;5966;52.402;5.322;2022-10-04T18:36:17;4.27;;;3.60;;
11817;SDS011;5966;52.402;5.322;2022-10-04T18:38:59;4.00;;;3.60;;
11817;SDS011;5966;52.402;5.322;2022-10-04T18:41:32;4.73;;;3.73;;
11817;SDS011;5966;52.402;5.322;2022-10-04T18:44:20;6.97;;;4.20;;
11817;SDS011;5966;52.402;5.322;2022-10-04T18:46:58;6.27;;;3.67;;